sensor_id;sensor_type;location;lat;lon;timestamp;P1;durP1;ratioP1;P2;durP2;ratioP2
38937;SDS011;24727;51.974;20.868;2022-10-28T00:06:04;44.67;;;26.10;;
38937;SDS011;24727;51.974;20.868;2022-10-28T00:09:12;40.95;;;26.35;;
38937;SDS011;24727;51.974;20.868;2022-10-28T00:18:42;38.47;;;24.33;;
38937;SDS011;24727;51.974;20.868;2022-10-28T00:24:27;40.58;;;26.92;;
38937;SDS011;24727;51.974;20.868;2022-10-28T00:37:55;54.45;;;31.02;;
38937;SDS011;24727;51.974;20.868;2022-10-28T00:41:09;47.40;;;28.75;;
38937;SDS011;24727;51.974;20.868;2022-10-28T03:24:08;41.08;;;22.80;;
38937;SDS011;24727;51.974;20.868;2022-10-28T03:26:51;32.88;;;22.25;;
38937;SDS011;24727;51.974;20.868;2022-10-28T03:31:52;38.10;;;20.58;;
38937;SDS011;24727;51.974;20.868;2022-10-28T03:37:16;53.13;;;22.38;;
38937;SDS011;24727;51.974;20.868;2022-10-28T03:56:39;32.10;;;20.08;;
38937;SDS011;24727;51.974;20.868;2022-10-28T03:59:12;29.35;;;18.08;;
38937;SDS011;24727;51.974;20.868;2022-10-28T04:01:46;56.97;;;22.10;;
38937;SDS011;24727;51.974;20.868;2022-10-28T04:04:38;29.25;;;18.83;;
38937;SDS011;24727;51.974;20.868;2022-10-28T04:10:45;33.35;;;18.70;;
38937;SDS011;24727;51.974;20.868;2022-10-28T04:13:18;31.13;;;19.35;;
38937;SDS011;24727;51.974;20.868;2022-10-28T04:15:49;28.77;;;17.77;;
38937;SDS011;24727;51.974;20.868;2022-10-28T04:18:21;26.88;;;19.38;;
38937;SDS011;24727;51.974;20.868;2022-10-28T04:21:01;23.90;;;16.27;;
38937;SDS011;24727;51.974;20.868;2022-10-28T04:23:30;24.60;;;16.90;;
38937;SDS011;24727;51.974;20.868;2022-10-28T04:25:59;24.52;;;17.50;;
38937;SDS011;24727;51.974;20.868;2022-10-28T04:28:27;25.75;;;17.17;;
38937;SDS011;24727;51.974;20.868;2022-10-28T04:31:00;24.73;;;16.55;;
38937;SDS011;24727;51.974;20.868;2022-10-28T04:33:28;24.60;;;16.52;;
38937;SDS011;24727;51.974;20.868;2022-10-28T04:38:25;21.60;;;16.43;;
38937;SDS011;24727;51.974;20.868;2022-10-28T04:40:54;30.15;;;18.05;;
38937;SDS011;24727;51.974;20.868;2022-10-28T04:43:21;20.00;;;14.68;;
38937;SDS011;24727;51.974;20.868;2022-10-28T04:45:48;26.27;;;18.00;;
38937;SDS011;24727;51.974;20.868;2022-10-28T04:48:20;29.45;;;19.10;;
38937;SDS011;24727;51.974;20.868;2022-10-28T04:50:48;39.13;;;20.90;;
38937;SDS011;24727;51.974;20.868;2022-10-28T04:53:22;28.58;;;20.13;;
38937;SDS011;24727;51.974;20.868;2022-10-28T04:55:57;32.90;;;19.55;;
38937;SDS011;24727;51.974;20.868;2022-10-28T04:58:26;35.53;;;21.25;;
38937;SDS011;24727;51.974;20.868;2022-10-28T05:01:03;31.88;;;20.55;;
38937;SDS011;24727;51.974;20.868;2022-10-28T05:03:32;35.88;;;21.15;;
38937;SDS011;24727;51.974;20.868;2022-10-28T05:06:05;37.47;;;20.83;;
38937;SDS011;24727;51.974;20.868;2022-10-28T05:08:31;35.72;;;21.52;;
38937;SDS011;24727;51.974;20.868;2022-10-28T05:11:03;28.58;;;19.88;;
38937;SDS011;24727;51.974;20.868;2022-10-28T05:16:18;27.90;;;18.98;;
38937;SDS011;24727;51.974;20.868;2022-10-28T05:18:47;31.13;;;19.90;;
38937;SDS011;24727;51.974;20.868;2022-10-28T05:21:14;25.90;;;15.57;;
38937;SDS011;24727;51.974;20.868;2022-10-28T05:23:42;26.90;;;18.38;;
38937;SDS011;24727;51.974;20.868;2022-10-28T05:26:09;25.52;;;17.40;;
38937;SDS011;24727;51.974;20.868;2022-10-28T05:28:42;23.92;;;15.68;;
38937;SDS011;24727;51.974;20.868;2022-10-28T05:31:09;22.23;;;16.27;;
38937;SDS011;24727;51.974;20.868;2022-10-28T05:33:36;23.23;;;16.48;;
38937;SDS011;24727;51.974;20.868;2022-10-28T05:36:03;28.40;;;16.42;;
38937;SDS011;24727;51.974;20.868;2022-10-28T05:41:21;24.77;;;16.65;;
38937;SDS011;24727;51.974;20.868;2022-10-28T05:43:48;22.92;;;16.92;;
38937;SDS011;24727;51.974;20.868;2022-10-28T05:46:16;26.40;;;16.88;;
38937;SDS011;24727;51.974;20.868;2022-10-28T05:48:48;28.23;;;17.85;;
38937;SDS011;24727;51.974;20.868;2022-10-28T05:51:16;25.83;;;16.15;;
38937;SDS011;24727;51.974;20.868;2022-10-28T05:53:42;26.08;;;18.55;;
38937;SDS011;24727;51.974;20.868;2022-10-28T05:56:09;23.08;;;16.33;;
38937;SDS011;24727;51.974;20.868;2022-10-28T05:58:36;25.00;;;16.55;;
38937;SDS011;24727;51.974;20.868;2022-10-28T06:01:04;27.10;;;17.80;;
38937;SDS011;24727;51.974;20.868;2022-10-28T06:03:36;26.80;;;17.92;;
38937;SDS011;24727;51.974;20.868;2022-10-28T06:06:04;27.80;;;18.38;;
38937;SDS011;24727;51.974;20.868;2022-10-28T06:08:48;21.48;;;14.88;;
38937;SDS011;24727;51.974;20.868;2022-10-28T06:11:15;29.10;;;17.40;;
38937;SDS011;24727;51.974;20.868;2022-10-28T06:13:44;15.13;;;11.35;;
38937;SDS011;24727;51.974;20.868;2022-10-28T06:16:14;25.73;;;18.63;;
38937;SDS011;24727;51.974;20.868;2022-10-28T06:18:47;24.42;;;18.05;;
38937;SDS011;24727;51.974;20.868;2022-10-28T06:21:33;24.15;;;16.60;;
38937;SDS011;24727;51.974;20.868;2022-10-28T06:30:28;34.17;;;21.80;;
38937;SDS011;24727;51.974;20.868;2022-10-28T06:33:40;37.30;;;21.33;;
38937;SDS011;24727;51.974;20.868;2022-10-28T07:25:20;48.35;;;27.33;;
38937;SDS011;24727;51.974;20.868;2022-10-28T07:45:54;28.42;;;19.60;;
38937;SDS011;24727;51.974;20.868;2022-10-28T10:03:12;26.00;;;17.00;;
38937;SDS011;24727;51.974;20.868;2022-10-28T10:05:54;27.35;;;15.73;;
38937;SDS011;24727;51.974;20.868;2022-10-28T10:11:46;27.58;;;17.45;;
38937;SDS011;24727;51.974;20.868;2022-10-28T10:14:47;24.58;;;16.23;;
38937;SDS011;24727;51.974;20.868;2022-10-28T10:17:30;23.75;;;17.00;;
38937;SDS011;24727;51.974;20.868;2022-10-28T10:20:08;23.20;;;16.95;;
38937;SDS011;24727;51.974;20.868;2022-10-28T10:22:41;21.00;;;15.27;;
38937;SDS011;24727;51.974;20.868;2022-10-28T10:30:44;21.55;;;15.85;;
38937;SDS011;24727;51.974;20.868;2022-10-28T10:33:18;19.77;;;14.38;;
38937;SDS011;24727;51.974;20.868;2022-10-28T10:35:55;22.05;;;14.05;;
38937;SDS011;24727;51.974;20.868;2022-10-28T10:38:27;17.85;;;13.75;;
38937;SDS011;24727;51.974;20.868;2022-10-28T10:40:54;17.35;;;14.05;;
38937;SDS011;24727;51.974;20.868;2022-10-28T10:43:28;20.30;;;13.32;;
38937;SDS011;24727;51.974;20.868;2022-10-28T10:46:14;21.45;;;14.52;;
38937;SDS011;24727;51.974;20.868;2022-10-28T10:48:42;23.63;;;13.88;;
38937;SDS011;24727;51.974;20.868;2022-10-28T10:53:45;21.90;;;13.07;;
38937;SDS011;24727;51.974;20.868;2022-10-28T10:56:13;17.15;;;12.60;;
38937;SDS011;24727;51.974;20.868;2022-10-28T10:58:56;22.88;;;13.85;;
38937;SDS011;24727;51.974;20.868;2022-10-28T11:01:30;17.38;;;12.75;;
38937;SDS011;24727;51.974;20.868;2022-10-28T11:04:06;17.55;;;13.00;;
38937;SDS011;24727;51.974;20.868;2022-10-28T11:06:40;18.30;;;13.10;;
38937;SDS011;24727;51.974;20.868;2022-10-28T11:11:49;17.27;;;12.00;;
38937;SDS011;24727;51.974;20.868;2022-10-28T11:16:58;15.52;;;11.82;;
38937;SDS011;24727;51.974;20.868;2022-10-28T11:19:32;16.27;;;12.65;;
38937;SDS011;24727;51.974;20.868;2022-10-28T11:30:20;16.00;;;9.65;;
38937;SDS011;24727;51.974;20.868;2022-10-28T11:33:11;14.80;;;11.88;;
38937;SDS011;24727;51.974;20.868;2022-10-28T11:35:47;15.45;;;10.60;;
38937;SDS011;24727;51.974;20.868;2022-10-28T11:38:24;17.50;;;10.45;;
38937;SDS011;24727;51.974;20.868;2022-10-28T11:41:18;12.38;;;9.90;;
38937;SDS011;24727;51.974;20.868;2022-10-28T11:43:53;17.67;;;9.73;;
38937;SDS011;24727;51.974;20.868;2022-10-28T11:46:35;15.00;;;10.75;;
38937;SDS011;24727;51.974;20.868;2022-10-28T11:58:02;25.20;;;11.27;;
38937;SDS011;24727;51.974;20.868;2022-10-28T12:00:39;18.23;;;13.55;;
38937;SDS011;24727;51.974;20.868;2022-10-28T12:06:01;15.20;;;10.07;;
38937;SDS011;24727;51.974;20.868;2022-10-28T12:08:34;11.43;;;9.40;;
38937;SDS011;24727;51.974;20.868;2022-10-28T12:16:36;12.38;;;8.77;;
38937;SDS011;24727;51.974;20.868;2022-10-28T12:22:01;14.90;;;9.83;;
38937;SDS011;24727;51.974;20.868;2022-10-28T12:24:36;12.63;;;8.82;;
38937;SDS011;24727;51.974;20.868;2022-10-28T12:27:13;13.85;;;9.50;;
38937;SDS011;24727;51.974;20.868;2022-10-28T12:29:44;10.90;;;8.73;;
38937;SDS011;24727;51.974;20.868;2022-10-28T12:32:21;14.02;;;8.85;;
38937;SDS011;24727;51.974;20.868;2022-10-28T12:37:39;15.75;;;8.45;;
38937;SDS011;24727;51.974;20.868;2022-10-28T12:40:34;13.65;;;8.05;;
38937;SDS011;24727;51.974;20.868;2022-10-28T12:45:56;12.23;;;9.27;;
38937;SDS011;24727;51.974;20.868;2022-10-28T12:51:16;12.38;;;7.93;;
38937;SDS011;24727;51.974;20.868;2022-10-28T12:56:32;15.70;;;8.95;;
38937;SDS011;24727;51.974;20.868;2022-10-28T12:59:21;15.40;;;8.73;;
38937;SDS011;24727;51.974;20.868;2022-10-28T13:01:55;12.27;;;8.77;;
38937;SDS011;24727;51.974;20.868;2022-10-28T13:04:25;12.48;;;9.50;;
38937;SDS011;24727;51.974;20.868;2022-10-28T13:09:57;11.93;;;8.88;;
38937;SDS011;24727;51.974;20.868;2022-10-28T13:15:26;13.00;;;7.97;;
38937;SDS011;24727;51.974;20.868;2022-10-28T13:23:19;13.82;;;8.93;;
38937;SDS011;24727;51.974;20.868;2022-10-28T13:25:54;12.73;;;9.57;;
38937;SDS011;24727;51.974;20.868;2022-10-28T13:28:21;14.68;;;9.35;;
38937;SDS011;24727;51.974;20.868;2022-10-28T13:31:02;13.07;;;8.20;;
38937;SDS011;24727;51.974;20.868;2022-10-28T13:33:32;14.20;;;8.15;;
38937;SDS011;24727;51.974;20.868;2022-10-28T13:36:19;11.48;;;8.35;;
38937;SDS011;24727;51.974;20.868;2022-10-28T13:38:52;13.27;;;8.70;;
38937;SDS011;24727;51.974;20.868;2022-10-28T13:41:32;11.10;;;8.98;;
38937;SDS011;24727;51.974;20.868;2022-10-28T13:49:34;14.68;;;8.05;;
38937;SDS011;24727;51.974;20.868;2022-10-28T13:59:46;13.10;;;7.85;;
38937;SDS011;24727;51.974;20.868;2022-10-28T14:02:26;13.55;;;9.43;;
38937;SDS011;24727;51.974;20.868;2022-10-28T14:05:21;14.52;;;9.10;;
38937;SDS011;24727;51.974;20.868;2022-10-28T14:11:07;13.57;;;8.07;;
38937;SDS011;24727;51.974;20.868;2022-10-28T14:13:38;15.48;;;8.55;;
38937;SDS011;24727;51.974;20.868;2022-10-28T14:21:42;12.73;;;8.45;;
38937;SDS011;24727;51.974;20.868;2022-10-28T14:24:32;11.48;;;8.50;;
38937;SDS011;24727;51.974;20.868;2022-10-28T14:29:44;12.80;;;8.10;;
38937;SDS011;24727;51.974;20.868;2022-10-28T14:40:31;13.00;;;7.95;;
38937;SDS011;24727;51.974;20.868;2022-10-28T14:48:39;12.82;;;7.60;;
38937;SDS011;24727;51.974;20.868;2022-10-28T14:51:20;10.73;;;7.68;;
38937;SDS011;24727;51.974;20.868;2022-10-28T14:53:52;11.13;;;7.82;;
38937;SDS011;24727;51.974;20.868;2022-10-28T14:56:23;17.77;;;10.05;;
38937;SDS011;24727;51.974;20.868;2022-10-28T14:58:52;10.27;;;8.18;;
38937;SDS011;24727;51.974;20.868;2022-10-28T15:01:24;15.52;;;9.02;;
38937;SDS011;24727;51.974;20.868;2022-10-28T15:03:53;14.35;;;8.70;;
38937;SDS011;24727;51.974;20.868;2022-10-28T15:06:23;14.13;;;8.82;;
38937;SDS011;24727;51.974;20.868;2022-10-28T15:08:55;15.55;;;8.05;;
38937;SDS011;24727;51.974;20.868;2022-10-28T15:11:29;15.27;;;9.40;;
38937;SDS011;24727;51.974;20.868;2022-10-28T15:13:59;14.13;;;9.27;;
38937;SDS011;24727;51.974;20.868;2022-10-28T15:16:44;12.88;;;8.25;;
38937;SDS011;24727;51.974;20.868;2022-10-28T15:19:13;12.18;;;9.43;;
38937;SDS011;24727;51.974;20.868;2022-10-28T15:21:43;16.42;;;8.20;;
38937;SDS011;24727;51.974;20.868;2022-10-28T15:24:29;15.35;;;9.13;;
38937;SDS011;24727;51.974;20.868;2022-10-28T15:26:56;9.93;;;8.30;;
38937;SDS011;24727;51.974;20.868;2022-10-28T15:29:23;15.23;;;8.15;;
38937;SDS011;24727;51.974;20.868;2022-10-28T15:32:10;14.75;;;9.77;;
38937;SDS011;24727;51.974;20.868;2022-10-28T15:34:40;16.42;;;10.07;;
38937;SDS011;24727;51.974;20.868;2022-10-28T15:37:07;18.27;;;10.13;;
38937;SDS011;24727;51.974;20.868;2022-10-28T15:39:33;11.98;;;8.43;;
38937;SDS011;24727;51.974;20.868;2022-10-28T15:42:00;15.00;;;9.50;;
38937;SDS011;24727;51.974;20.868;2022-10-28T15:44:34;17.95;;;12.05;;
38937;SDS011;24727;51.974;20.868;2022-10-28T15:49:58;21.05;;;12.05;;
38937;SDS011;24727;51.974;20.868;2022-10-28T15:52:30;17.65;;;10.98;;
38937;SDS011;24727;51.974;20.868;2022-10-28T15:55:01;21.13;;;12.77;;
38937;SDS011;24727;51.974;20.868;2022-10-28T15:57:51;16.83;;;11.43;;
38937;SDS011;24727;51.974;20.868;2022-10-28T16:00:29;18.38;;;12.48;;
38937;SDS011;24727;51.974;20.868;2022-10-28T16:03:00;23.35;;;13.98;;
38937;SDS011;24727;51.974;20.868;2022-10-28T16:08:06;22.58;;;13.82;;
38937;SDS011;24727;51.974;20.868;2022-10-28T16:10:43;17.30;;;14.00;;
38937;SDS011;24727;51.974;20.868;2022-10-28T16:15:56;18.33;;;12.30;;
38937;SDS011;24727;51.974;20.868;2022-10-28T16:21:00;21.95;;;12.98;;
38937;SDS011;24727;51.974;20.868;2022-10-28T16:23:31;21.80;;;13.13;;
38937;SDS011;24727;51.974;20.868;2022-10-28T16:26:03;17.90;;;11.48;;
38937;SDS011;24727;51.974;20.868;2022-10-28T16:28:29;19.15;;;12.80;;
38937;SDS011;24727;51.974;20.868;2022-10-28T16:30:57;20.25;;;13.02;;
38937;SDS011;24727;51.974;20.868;2022-10-28T16:33:30;14.50;;;9.63;;
38937;SDS011;24727;51.974;20.868;2022-10-28T16:35:59;17.48;;;12.55;;
38937;SDS011;24727;51.974;20.868;2022-10-28T16:38:27;17.90;;;11.30;;
38937;SDS011;24727;51.974;20.868;2022-10-28T16:40:55;18.67;;;14.15;;
38937;SDS011;24727;51.974;20.868;2022-10-28T16:43:27;20.33;;;14.38;;
38937;SDS011;24727;51.974;20.868;2022-10-28T16:45:55;20.30;;;14.82;;
38937;SDS011;24727;51.974;20.868;2022-10-28T16:48:24;25.98;;;15.20;;
38937;SDS011;24727;51.974;20.868;2022-10-28T16:50:56;22.00;;;15.73;;
38937;SDS011;24727;51.974;20.868;2022-10-28T16:53:26;28.80;;;15.60;;
38937;SDS011;24727;51.974;20.868;2022-10-28T16:55:53;19.92;;;13.77;;
38937;SDS011;24727;51.974;20.868;2022-10-28T16:58:27;23.75;;;14.77;;
38937;SDS011;24727;51.974;20.868;2022-10-28T17:00:55;21.40;;;14.77;;
38937;SDS011;24727;51.974;20.868;2022-10-28T17:03:21;19.08;;;14.10;;
38937;SDS011;24727;51.974;20.868;2022-10-28T17:05:49;21.20;;;14.52;;
38937;SDS011;24727;51.974;20.868;2022-10-28T17:08:15;20.48;;;14.85;;
38937;SDS011;24727;51.974;20.868;2022-10-28T17:10:42;20.73;;;12.13;;
38937;SDS011;24727;51.974;20.868;2022-10-28T17:13:12;25.85;;;14.85;;
38937;SDS011;24727;51.974;20.868;2022-10-28T17:15:39;21.00;;;13.13;;
38937;SDS011;24727;51.974;20.868;2022-10-28T17:18:06;18.67;;;13.35;;
38937;SDS011;24727;51.974;20.868;2022-10-28T17:20:35;21.20;;;12.82;;
38937;SDS011;24727;51.974;20.868;2022-10-28T17:23:02;19.00;;;12.38;;
38937;SDS011;24727;51.974;20.868;2022-10-28T17:25:29;18.63;;;11.63;;
38937;SDS011;24727;51.974;20.868;2022-10-28T17:27:56;18.70;;;11.90;;
38937;SDS011;24727;51.974;20.868;2022-10-28T17:30:27;15.25;;;10.45;;
38937;SDS011;24727;51.974;20.868;2022-10-28T17:32:54;16.77;;;10.88;;
38937;SDS011;24727;51.974;20.868;2022-10-28T17:35:21;14.93;;;9.95;;
38937;SDS011;24727;51.974;20.868;2022-10-28T17:37:48;16.67;;;11.93;;
38937;SDS011;24727;51.974;20.868;2022-10-28T17:40:22;23.83;;;10.30;;
38937;SDS011;24727;51.974;20.868;2022-10-28T17:42:49;18.92;;;10.23;;
38937;SDS011;24727;51.974;20.868;2022-10-28T17:45:16;14.18;;;10.57;;
38937;SDS011;24727;51.974;20.868;2022-10-28T17:47:43;22.70;;;10.93;;
38937;SDS011;24727;51.974;20.868;2022-10-28T17:50:14;22.27;;;9.57;;
38937;SDS011;24727;51.974;20.868;2022-10-28T17:52:39;17.60;;;10.50;;
38937;SDS011;24727;51.974;20.868;2022-10-28T17:55:06;19.67;;;10.68;;
38937;SDS011;24727;51.974;20.868;2022-10-28T17:57:33;19.83;;;9.98;;
38937;SDS011;24727;51.974;20.868;2022-10-28T18:00:01;13.13;;;9.82;;
38937;SDS011;24727;51.974;20.868;2022-10-28T18:02:27;17.55;;;10.70;;
38937;SDS011;24727;51.974;20.868;2022-10-28T18:04:54;16.08;;;10.73;;
38937;SDS011;24727;51.974;20.868;2022-10-28T18:07:21;14.27;;;10.40;;
38937;SDS011;24727;51.974;20.868;2022-10-28T18:09:47;16.17;;;10.70;;
38937;SDS011;24727;51.974;20.868;2022-10-28T18:12:12;14.50;;;10.27;;
38937;SDS011;24727;51.974;20.868;2022-10-28T18:14:40;15.20;;;10.98;;
38937;SDS011;24727;51.974;20.868;2022-10-28T18:17:07;18.70;;;11.20;;
38937;SDS011;24727;51.974;20.868;2022-10-28T18:19:38;17.55;;;11.43;;
38937;SDS011;24727;51.974;20.868;2022-10-28T18:22:04;18.08;;;11.73;;
38937;SDS011;24727;51.974;20.868;2022-10-28T18:24:32;15.63;;;11.00;;
38937;SDS011;24727;51.974;20.868;2022-10-28T18:26:59;18.63;;;11.55;;
38937;SDS011;24727;51.974;20.868;2022-10-28T18:29:25;23.05;;;11.43;;
38937;SDS011;24727;51.974;20.868;2022-10-28T18:31:51;19.90;;;11.32;;
38937;SDS011;24727;51.974;20.868;2022-10-28T18:34:19;14.68;;;10.98;;
38937;SDS011;24727;51.974;20.868;2022-10-28T18:36:45;15.90;;;11.55;;
38937;SDS011;24727;51.974;20.868;2022-10-28T18:39:11;17.02;;;11.88;;
38937;SDS011;24727;51.974;20.868;2022-10-28T18:41:45;20.52;;;11.40;;
38937;SDS011;24727;51.974;20.868;2022-10-28T18:44:12;18.30;;;11.93;;
38937;SDS011;24727;51.974;20.868;2022-10-28T18:46:41;16.92;;;11.80;;
38937;SDS011;24727;51.974;20.868;2022-10-28T18:51:45;20.70;;;12.70;;
38937;SDS011;24727;51.974;20.868;2022-10-28T18:54:10;20.60;;;12.13;;
38937;SDS011;24727;51.974;20.868;2022-10-28T18:56:36;24.80;;;11.93;;
38937;SDS011;24727;51.974;20.868;2022-10-28T18:59:02;18.63;;;11.43;;
38937;SDS011;24727;51.974;20.868;2022-10-28T19:04:18;19.98;;;10.80;;
38937;SDS011;24727;51.974;20.868;2022-10-28T19:06:45;17.33;;;10.70;;
38937;SDS011;24727;51.974;20.868;2022-10-28T19:09:11;17.45;;;10.80;;
38937;SDS011;24727;51.974;20.868;2022-10-28T19:11:37;18.42;;;11.00;;
38937;SDS011;24727;51.974;20.868;2022-10-28T19:14:04;17.50;;;11.68;;
38937;SDS011;24727;51.974;20.868;2022-10-28T19:16:31;16.13;;;11.65;;
38937;SDS011;24727;51.974;20.868;2022-10-28T19:18:58;17.88;;;11.07;;
38937;SDS011;24727;51.974;20.868;2022-10-28T19:21:26;21.02;;;10.98;;
38937;SDS011;24727;51.974;20.868;2022-10-28T19:23:52;16.63;;;9.43;;
38937;SDS011;24727;51.974;20.868;2022-10-28T19:26:19;16.95;;;10.75;;
38937;SDS011;24727;51.974;20.868;2022-10-28T19:28:47;17.10;;;10.95;;
38937;SDS011;24727;51.974;20.868;2022-10-28T19:31:18;16.98;;;10.55;;
38937;SDS011;24727;51.974;20.868;2022-10-28T19:33:45;14.73;;;11.05;;
38937;SDS011;24727;51.974;20.868;2022-10-28T19:38:45;17.25;;;10.88;;
38937;SDS011;24727;51.974;20.868;2022-10-28T19:41:13;17.90;;;11.20;;
38937;SDS011;24727;51.974;20.868;2022-10-28T19:43:43;18.05;;;11.32;;
38937;SDS011;24727;51.974;20.868;2022-10-28T19:46:17;14.75;;;10.45;;
38937;SDS011;24727;51.974;20.868;2022-10-28T19:48:46;15.27;;;9.57;;
38937;SDS011;24727;51.974;20.868;2022-10-28T19:51:16;19.25;;;10.68;;
38937;SDS011;24727;51.974;20.868;2022-10-28T19:53:49;24.23;;;10.88;;
38937;SDS011;24727;51.974;20.868;2022-10-28T19:56:17;22.40;;;10.98;;
38937;SDS011;24727;51.974;20.868;2022-10-28T19:58:49;17.95;;;9.95;;
38937;SDS011;24727;51.974;20.868;2022-10-28T20:01:18;17.67;;;9.65;;
38937;SDS011;24727;51.974;20.868;2022-10-28T20:03:45;18.95;;;10.60;;
38937;SDS011;24727;51.974;20.868;2022-10-28T20:06:12;17.60;;;10.68;;
38937;SDS011;24727;51.974;20.868;2022-10-28T20:08:42;17.67;;;10.85;;
38937;SDS011;24727;51.974;20.868;2022-10-28T20:11:26;15.73;;;10.52;;
38937;SDS011;24727;51.974;20.868;2022-10-28T20:13:58;18.58;;;10.18;;
38937;SDS011;24727;51.974;20.868;2022-10-28T20:16:26;16.00;;;10.75;;
38937;SDS011;24727;51.974;20.868;2022-10-28T20:18:56;18.08;;;8.88;;
38937;SDS011;24727;51.974;20.868;2022-10-28T20:21:28;16.30;;;10.45;;
38937;SDS011;24727;51.974;20.868;2022-10-28T20:23:55;16.58;;;10.35;;
38937;SDS011;24727;51.974;20.868;2022-10-28T20:26:22;15.25;;;9.82;;
38937;SDS011;24727;51.974;20.868;2022-10-28T20:28:50;14.45;;;8.93;;
38937;SDS011;24727;51.974;20.868;2022-10-28T20:31:18;23.17;;;10.93;;
38937;SDS011;24727;51.974;20.868;2022-10-28T20:33:53;15.93;;;10.35;;
38937;SDS011;24727;51.974;20.868;2022-10-28T20:36:25;15.30;;;10.02;;
38937;SDS011;24727;51.974;20.868;2022-10-28T20:41:47;16.33;;;9.27;;
38937;SDS011;24727;51.974;20.868;2022-10-28T20:44:13;17.92;;;9.68;;
38937;SDS011;24727;51.974;20.868;2022-10-28T20:46:40;14.40;;;8.70;;
38937;SDS011;24727;51.974;20.868;2022-10-28T20:49:07;13.60;;;9.82;;
38937;SDS011;24727;51.974;20.868;2022-10-28T20:51:33;12.63;;;9.13;;
38937;SDS011;24727;51.974;20.868;2022-10-28T20:54:00;16.02;;;10.07;;
38937;SDS011;24727;51.974;20.868;2022-10-28T20:56:29;18.88;;;9.38;;
38937;SDS011;24727;51.974;20.868;2022-10-28T20:59:03;19.33;;;9.52;;
38937;SDS011;24727;51.974;20.868;2022-10-28T21:01:31;16.58;;;9.82;;
38937;SDS011;24727;51.974;20.868;2022-10-28T21:03:59;19.77;;;10.27;;
38937;SDS011;24727;51.974;20.868;2022-10-28T21:06:27;12.75;;;9.40;;
38937;SDS011;24727;51.974;20.868;2022-10-28T21:08:54;11.55;;;9.45;;
38937;SDS011;24727;51.974;20.868;2022-10-28T21:11:22;18.50;;;9.18;;
38937;SDS011;24727;51.974;20.868;2022-10-28T21:13:50;16.92;;;8.60;;
38937;SDS011;24727;51.974;20.868;2022-10-28T21:16:22;18.73;;;10.15;;
38937;SDS011;24727;51.974;20.868;2022-10-28T21:18:50;16.17;;;8.90;;
38937;SDS011;24727;51.974;20.868;2022-10-28T21:21:17;14.52;;;9.50;;
38937;SDS011;24727;51.974;20.868;2022-10-28T21:23:51;12.85;;;9.27;;
38937;SDS011;24727;51.974;20.868;2022-10-28T21:26:18;17.33;;;10.48;;
38937;SDS011;24727;51.974;20.868;2022-10-28T21:28:48;17.38;;;9.75;;
38937;SDS011;24727;51.974;20.868;2022-10-28T21:31:15;19.15;;;10.10;;
38937;SDS011;24727;51.974;20.868;2022-10-28T21:33:43;20.35;;;9.50;;
38937;SDS011;24727;51.974;20.868;2022-10-28T21:36:13;18.05;;;9.80;;
38937;SDS011;24727;51.974;20.868;2022-10-28T21:38:41;22.35;;;10.68;;
38937;SDS011;24727;51.974;20.868;2022-10-28T21:41:09;18.63;;;10.05;;
38937;SDS011;24727;51.974;20.868;2022-10-28T21:43:41;16.83;;;10.15;;
38937;SDS011;24727;51.974;20.868;2022-10-28T21:46:09;17.17;;;9.88;;
38937;SDS011;24727;51.974;20.868;2022-10-28T21:48:36;13.18;;;9.75;;
38937;SDS011;24727;51.974;20.868;2022-10-28T21:51:04;15.88;;;10.25;;
38937;SDS011;24727;51.974;20.868;2022-10-28T21:53:32;22.02;;;10.55;;
38937;SDS011;24727;51.974;20.868;2022-10-28T21:58:31;18.20;;;10.35;;
38937;SDS011;24727;51.974;20.868;2022-10-28T22:01:00;16.77;;;10.93;;
38937;SDS011;24727;51.974;20.868;2022-10-28T22:03:27;22.42;;;11.48;;
38937;SDS011;24727;51.974;20.868;2022-10-28T22:05:54;15.57;;;9.48;;
38937;SDS011;24727;51.974;20.868;2022-10-28T22:08:19;20.42;;;9.77;;
38937;SDS011;24727;51.974;20.868;2022-10-28T22:10:46;19.23;;;10.73;;
38937;SDS011;24727;51.974;20.868;2022-10-28T22:13:12;18.02;;;10.18;;
38937;SDS011;24727;51.974;20.868;2022-10-28T22:15:39;15.25;;;9.55;;
38937;SDS011;24727;51.974;20.868;2022-10-28T22:18:05;21.05;;;10.90;;
38937;SDS011;24727;51.974;20.868;2022-10-28T22:20:31;13.45;;;10.07;;
38937;SDS011;24727;51.974;20.868;2022-10-28T22:22:58;18.67;;;10.48;;
38937;SDS011;24727;51.974;20.868;2022-10-28T22:25:26;21.63;;;10.30;;
38937;SDS011;24727;51.974;20.868;2022-10-28T22:27:53;20.10;;;10.50;;
38937;SDS011;24727;51.974;20.868;2022-10-28T22:30:19;18.30;;;10.88;;
38937;SDS011;24727;51.974;20.868;2022-10-28T22:32:45;16.30;;;9.50;;
38937;SDS011;24727;51.974;20.868;2022-10-28T22:35:11;15.80;;;10.05;;
38937;SDS011;24727;51.974;20.868;2022-10-28T22:37:39;17.58;;;10.10;;
38937;SDS011;24727;51.974;20.868;2022-10-28T22:40:05;20.70;;;10.15;;
38937;SDS011;24727;51.974;20.868;2022-10-28T22:42:31;14.85;;;9.98;;
38937;SDS011;24727;51.974;20.868;2022-10-28T22:44:57;19.67;;;9.98;;
38937;SDS011;24727;51.974;20.868;2022-10-28T22:47:23;14.70;;;9.02;;
38937;SDS011;24727;51.974;20.868;2022-10-28T22:49:50;17.20;;;9.60;;
38937;SDS011;24727;51.974;20.868;2022-10-28T22:52:16;15.55;;;9.80;;
38937;SDS011;24727;51.974;20.868;2022-10-28T22:54:43;20.38;;;9.63;;
38937;SDS011;24727;51.974;20.868;2022-10-28T22:57:09;15.93;;;9.80;;
38937;SDS011;24727;51.974;20.868;2022-10-28T22:59:35;17.15;;;9.40;;
38937;SDS011;24727;51.974;20.868;2022-10-28T23:02:01;14.65;;;9.75;;
38937;SDS011;24727;51.974;20.868;2022-10-28T23:04:26;16.35;;;9.40;;
38937;SDS011;24727;51.974;20.868;2022-10-28T23:06:52;15.48;;;10.13;;
38937;SDS011;24727;51.974;20.868;2022-10-28T23:09:18;14.90;;;10.10;;
38937;SDS011;24727;51.974;20.868;2022-10-28T23:11:45;21.15;;;9.95;;
38937;SDS011;24727;51.974;20.868;2022-10-28T23:14:25;15.77;;;9.35;;
38937;SDS011;24727;51.974;20.868;2022-10-28T23:16:52;18.20;;;9.70;;
38937;SDS011;24727;51.974;20.868;2022-10-28T23:19:20;14.18;;;9.50;;
38937;SDS011;24727;51.974;20.868;2022-10-28T23:21:47;11.95;;;8.52;;
38937;SDS011;24727;51.974;20.868;2022-10-28T23:24:13;17.40;;;9.00;;
38937;SDS011;24727;51.974;20.868;2022-10-28T23:26:39;13.57;;;9.25;;
38937;SDS011;24727;51.974;20.868;2022-10-28T23:29:06;18.88;;;8.98;;
38937;SDS011;24727;51.974;20.868;2022-10-28T23:31:32;14.75;;;8.82;;
38937;SDS011;24727;51.974;20.868;2022-10-28T23:33:59;16.63;;;9.82;;
38937;SDS011;24727;51.974;20.868;2022-10-28T23:36:25;11.50;;;7.75;;
38937;SDS011;24727;51.974;20.868;2022-10-28T23:38:54;15.13;;;8.90;;
38937;SDS011;24727;51.974;20.868;2022-10-28T23:41:21;17.00;;;9.10;;
38937;SDS011;24727;51.974;20.868;2022-10-28T23:43:47;15.90;;;8.27;;
38937;SDS011;24727;51.974;20.868;2022-10-28T23:46:13;12.90;;;8.82;;
38937;SDS011;24727;51.974;20.868;2022-10-28T23:48:41;15.18;;;8.85;;
38937;SDS011;24727;51.974;20.868;2022-10-28T23:51:07;19.55;;;9.32;;
38937;SDS011;24727;51.974;20.868;2022-10-28T23:53:33;22.25;;;9.40;;